Ocean King — CZ2591 — position and weather

sailwx.info

Track history (hours):
 
Tides and Currents Weather Stations Pressure Air Temp Water Temp Dewpoint Dewpoint Depression Visibility Wind Speed Wind Dir Waves Ship Positions

Ocean King

Last reported at 2016-Feb-12 05:33 UTC. Time now 2016-Feb-12 05:37 UTC.
Position N 49°20' W 124°03'.

Length 29 m; draft 4 m.

Type: Fishing. MMSI: 316003514.

Date/timePositionNaut miles runAvg speedWind from/ knotsBaromVisibWave heightAir tempDewpointWater temp
2016-Feb-12 05:33N 49°20' W 124°03'10 9.8
2016-Feb-12 04:33N 49°25' W 124°16'9 9.3
2016-Feb-12 03:33N 49°30' W 124°27'10 9.8
2016-Feb-12 02:33N 49°36' W 124°39'1010.1
2016-Feb-12 01:33N 49°43' W 124°50'10 9.8
2016-Feb-12 00:33N 49°50' W 125°01'1010.1
2016-Feb-11 23:33N 49°58' W 125°11'1313.3
2016-Feb-11 22:33N 50°09' W 125°22'1 0.8
2016-Feb-11 21:33N 50°10' W 125°22'0 0.0
2016-Feb-11 20:33N 50°10' W 125°22'0 0.0
2016-Feb-11 19:33N 50°10' W 125°22'0 0.0
2016-Feb-11 18:33N 50°10' W 125°22'0 0.0
2016-Feb-11 17:33N 50°10' W 125°22'0 0.0
2016-Feb-11 16:34N 50°10' W 125°22'0 0.0
2016-Feb-11 15:33N 50°10' W 125°22'0 0.0
2016-Feb-11 14:34N 50°10' W 125°22'0 0.0
2016-Feb-11 13:33N 50°10' W 125°22'0 0.0
2016-Feb-11 12:33N 50°10' W 125°22'0 0.0
2016-Feb-11 11:33N 50°10' W 125°22'0 0.0
2016-Feb-11 10:33N 50°10' W 125°22'0 0.0
2016-Feb-11 09:33N 50°10' W 125°22'0 0.0
2016-Feb-11 08:33N 50°10' W 125°22'0 0.3
2016-Feb-11 07:33N 50°10' W 125°22'6 5.9
2016-Feb-11 06:33N 50°16' W 125°24'59 3.1
2016-Feb-10 11:32N 50°42' W 126°45'54 8.9
2016-Feb-10 05:24N 50°20' W 125°27'910.3
2016-Feb-10 04:33N 50°12' W 125°22'2 2.5
2016-Feb-10 03:34N 50°10' W 125°22'0 0.0
2016-Feb-10 02:33N 50°10' W 125°22'0 0.0
2016-Feb-10 01:33N 50°10' W 125°22'0 0.0
2016-Feb-10 00:34N 50°10' W 125°22'0 0.0
2016-Feb-09 23:33N 50°10' W 125°22'0 0.0
2016-Feb-09 22:33N 50°10' W 125°22'0 0.0
2016-Feb-09 21:33N 50°10' W 125°22'0 0.0
2016-Feb-09 20:33N 50°10' W 125°22'0 0.0
2016-Feb-09 19:33N 50°10' W 125°22'0 0.0
2016-Feb-09 18:33N 50°10' W 125°22'0 0.0
2016-Feb-09 17:33N 50°10' W 125°22'0 0.0
2016-Feb-09 16:33N 50°10' W 125°22'0 0.0
2016-Feb-09 15:33N 50°10' W 125°22'0 0.0
2016-Feb-09 14:33N 50°10' W 125°22'0 0.0
2016-Feb-09 13:33N 50°10' W 125°22'0 0.0
2016-Feb-09 12:33N 50°10' W 125°22'0 0.0
2016-Feb-09 11:33N 50°10' W 125°22'4 4.0
2016-Feb-09 10:33N 50°14' W 125°23'57 7.8
2016-Feb-09 03:18N 50°39' W 126°43'10 8.5
2016-Feb-09 02:04N 50°47' W 126°31'37 2.5
2016-Feb-08 11:32N 50°22' W 125°47'15 7.5
2016-Feb-08 09:33N 50°18' W 125°25'8 8.2
2016-Feb-08 08:33N 50°10' W 125°22'0 0.4
2016-Feb-08 07:33N 50°10' W 125°22'0 0.0
2016-Feb-08 06:33N 50°10' W 125°22'0 0.0
2016-Feb-08 05:33N 50°10' W 125°22'0 0.0
2016-Feb-08 04:33N 50°10' W 125°22'0 0.0
2016-Feb-08 03:33N 50°10' W 125°22'0 0.0
2016-Feb-08 02:33N 50°10' W 125°22'0 0.0
2016-Feb-08 01:33N 50°10' W 125°22'0 0.0
2016-Feb-08 00:33N 50°10' W 125°22'0 0.0
2016-Feb-07 23:33N 50°10' W 125°22'0 0.0
2016-Feb-07 22:33N 50°10' W 125°22'0 0.0
2016-Feb-07 21:33N 50°10' W 125°22'0 0.0
2016-Feb-07 20:33N 50°10' W 125°22'0 0.0
2016-Feb-07 19:33N 50°10' W 125°22'0 0.0
2016-Feb-07 18:33N 50°10' W 125°22'0 0.0
2016-Feb-07 17:33N 50°10' W 125°22'0 0.0
2016-Feb-07 16:33N 50°10' W 125°22'0 0.0
2016-Feb-07 15:33N 50°10' W 125°22'0 0.0
2016-Feb-07 14:33N 50°10' W 125°22'0 0.0
2016-Feb-07 13:33N 50°10' W 125°22'0 0.0
2016-Feb-07 12:33N 50°10' W 125°22'0 0.0
2016-Feb-07 11:33N 50°10' W 125°22'0 0.0
2016-Feb-07 10:33N 50°10' W 125°22'0 0.0
2016-Feb-07 09:33N 50°10' W 125°22'0 0.0
2016-Feb-07 08:33N 50°10' W 125°22'0 0.0
2016-Feb-07 07:33N 50°10' W 125°22'0 0.0
2016-Feb-07 06:33N 50°10' W 125°22'0 0.0
2016-Feb-07 05:33N 50°10' W 125°22'0 0.0
2016-Feb-07 04:33N 50°10' W 125°22'0 0.0
2016-Feb-07 03:33N 50°10' W 125°22'0 0.0
2016-Feb-07 02:33N 50°10' W 125°22'0 0.0
2016-Feb-07 01:33N 50°10' W 125°22'0 0.0
2016-Feb-07 00:33N 50°10' W 125°22'0 0.0
2016-Feb-06 23:33N 50°10' W 125°22'0 0.0
2016-Feb-06 22:33N 50°10' W 125°22'0 0.0
2016-Feb-06 21:33N 50°10' W 125°22'0 0.0
2016-Feb-06 20:33N 50°10' W 125°22'0 0.0
2016-Feb-06 19:33N 50°10' W 125°22'0 0.0
2016-Feb-06 18:31N 50°10' W 125°22'0 0.0
2016-Feb-06 17:33N 50°10' W 125°22'0 0.0
2016-Feb-06 16:33N 50°10' W 125°22'0 0.0
2016-Feb-06 15:33N 50°10' W 125°22'0 0.0
2016-Feb-06 14:33N 50°10' W 125°22'0 0.0
2016-Feb-06 13:33N 50°10' W 125°22'0 0.0
2016-Feb-06 12:33N 50°10' W 125°22'0 0.0
2016-Feb-06 11:33N 50°10' W 125°22'0 0.0
2016-Feb-06 10:33N 50°10' W 125°22'0 0.0
2016-Feb-06 09:33N 50°10' W 125°22'0 0.0
2016-Feb-06 08:33N 50°10' W 125°22'0 0.0
2016-Feb-06 07:33N 50°10' W 125°22'0 0.0
2016-Feb-06 06:33N 50°10' W 125°22'0 0.0
2016-Feb-06 05:33N 50°10' W 125°22'0 0.0
2016-Feb-06 04:33N 50°10' W 125°22'0 0.0
2016-Feb-06 03:33N 50°10' W 125°22'0 0.0
2016-Feb-06 02:33N 50°10' W 125°22'0 0.0
2016-Feb-06 01:33N 50°10' W 125°22'0 0.0
2016-Feb-06 00:33N 50°10' W 125°22'0 0.0
2016-Feb-05 23:33N 50°10' W 125°22'0 0.0
2016-Feb-05 22:33N 50°10' W 125°22'0 0.0
2016-Feb-05 21:33N 50°10' W 125°22'0 0.0
2016-Feb-05 20:33N 50°10' W 125°22'0 0.0
2016-Feb-05 19:33N 50°10' W 125°22'0 0.0
2016-Feb-05 18:33N 50°10' W 125°22'0 0.0
2016-Feb-05 17:33N 50°10' W 125°22'0 0.0
2016-Feb-05 16:33N 50°10' W 125°22'0 0.0
2016-Feb-05 15:33N 50°10' W 125°22'0 0.0
2016-Feb-05 14:33N 50°10' W 125°22'0 0.0
2016-Feb-05 13:33N 50°10' W 125°22'0 0.0
2016-Feb-05 12:33N 50°10' W 125°22'0 0.0
2016-Feb-05 11:33N 50°10' W 125°22'0 0.3
2016-Feb-05 10:33N 50°10' W 125°22'9 9.0
2016-Feb-05 09:33N 50°19' W 125°25'2 0.1
2016-Feb-04 08:11N 50°20' W 125°27'5 7.8
2016-Feb-04 07:33N 50°16' W 125°24'6 6.2
2016-Feb-04 06:33N 50°10' W 125°22'0 0.0
2016-Feb-04 05:33N 50°10' W 125°22'0 0.0
2016-Feb-04 04:33N 50°10' W 125°22'0 0.0
2016-Feb-04 03:33N 50°10' W 125°22'0 0.0
2016-Feb-04 02:33N 50°10' W 125°22'0 0.0
2016-Feb-04 01:33N 50°10' W 125°22'0 0.0
2016-Feb-04 00:33N 50°10' W 125°22'0 0.0
2016-Feb-03 23:33N 50°10' W 125°22'0 0.0
2016-Feb-03 22:33N 50°10' W 125°22'0 0.0
2016-Feb-03 21:33N 50°10' W 125°22'0 0.0
2016-Feb-03 20:33N 50°10' W 125°22'0 0.0
2016-Feb-03 19:33N 50°10' W 125°22'0 0.0
2016-Feb-03 18:33N 50°10' W 125°22'0 0.0
2016-Feb-03 17:33N 50°10' W 125°22'0 0.0
2016-Feb-03 16:33N 50°10' W 125°22'0 0.0
2016-Feb-03 15:33N 50°10' W 125°22'0 0.0
2016-Feb-03 14:33N 50°10' W 125°22'0 0.0
2016-Feb-03 13:33N 50°10' W 125°22'0 0.0
2016-Feb-03 12:33N 50°10' W 125°22'0 0.0
2016-Feb-03 11:33N 50°10' W 125°22'0 0.0
2016-Feb-03 10:33N 50°10' W 125°22'7 6.6
2016-Feb-03 09:33N 50°16' W 125°24'1 0.0
2016-Feb-02 07:33N 50°17' W 125°25'7 7.5
2016-Feb-02 06:33N 50°10' W 125°22'0 0.0
2016-Feb-02 05:33N 50°10' W 125°22'  
Track history (hours):
 
Tides and Currents Weather Stations Pressure Air Temp Water Temp Dewpoint Dewpoint Depression Visibility Wind Speed Wind Dir Waves Ship Positions

Ocean King

Last reported at 2016-Feb-12 05:33 UTC. Time now 2016-Feb-12 05:37 UTC.
Position N 49°20' W 124°03'.

Length 29 m; draft 4 m.

Type: Fishing. MMSI: 316003514.

Date/timePositionNaut miles runAvg speedWind from/ knotsBaromVisibWave heightAir tempDewpointWater temp
2016-Feb-12 05:33N 49°20' W 124°03'10 9.8
2016-Feb-12 04:33N 49°25' W 124°16'9 9.3
2016-Feb-12 03:33N 49°30' W 124°27'10 9.8
2016-Feb-12 02:33N 49°36' W 124°39'1010.1
2016-Feb-12 01:33N 49°43' W 124°50'10 9.8
2016-Feb-12 00:33N 49°50' W 125°01'1010.1
2016-Feb-11 23:33N 49°58' W 125°11'1313.3
2016-Feb-11 22:33N 50°09' W 125°22'1 0.8
2016-Feb-11 21:33N 50°10' W 125°22'0 0.0
2016-Feb-11 20:33N 50°10' W 125°22'0 0.0
2016-Feb-11 19:33N 50°10' W 125°22'0 0.0
2016-Feb-11 18:33N 50°10' W 125°22'0 0.0
2016-Feb-11 17:33N 50°10' W 125°22'0 0.0
2016-Feb-11 16:34N 50°10' W 125°22'0 0.0
2016-Feb-11 15:33N 50°10' W 125°22'0 0.0
2016-Feb-11 14:34N 50°10' W 125°22'0 0.0
2016-Feb-11 13:33N 50°10' W 125°22'0 0.0
2016-Feb-11 12:33N 50°10' W 125°22'0 0.0
2016-Feb-11 11:33N 50°10' W 125°22'0 0.0
2016-Feb-11 10:33N 50°10' W 125°22'0 0.0
2016-Feb-11 09:33N 50°10' W 125°22'0 0.0
2016-Feb-11 08:33N 50°10' W 125°22'0 0.3
2016-Feb-11 07:33N 50°10' W 125°22'6 5.9
2016-Feb-11 06:33N 50°16' W 125°24'59 3.1
2016-Feb-10 11:32N 50°42' W 126°45'54 8.9
2016-Feb-10 05:24N 50°20' W 125°27'910.3
2016-Feb-10 04:33N 50°12' W 125°22'2 2.5
2016-Feb-10 03:34N 50°10' W 125°22'0 0.0
2016-Feb-10 02:33N 50°10' W 125°22'0 0.0
2016-Feb-10 01:33N 50°10' W 125°22'0 0.0
2016-Feb-10 00:34N 50°10' W 125°22'0 0.0
2016-Feb-09 23:33N 50°10' W 125°22'0 0.0
2016-Feb-09 22:33N 50°10' W 125°22'0 0.0
2016-Feb-09 21:33N 50°10' W 125°22'0 0.0
2016-Feb-09 20:33N 50°10' W 125°22'0 0.0
2016-Feb-09 19:33N 50°10' W 125°22'0 0.0
2016-Feb-09 18:33N 50°10' W 125°22'0 0.0
2016-Feb-09 17:33N 50°10' W 125°22'0 0.0
2016-Feb-09 16:33N 50°10' W 125°22'0 0.0
2016-Feb-09 15:33N 50°10' W 125°22'0 0.0
2016-Feb-09 14:33N 50°10' W 125°22'0 0.0
2016-Feb-09 13:33N 50°10' W 125°22'0 0.0
2016-Feb-09 12:33N 50°10' W 125°22'0 0.0
2016-Feb-09 11:33N 50°10' W 125°22'4 4.0
2016-Feb-09 10:33N 50°14' W 125°23'57 7.8
2016-Feb-09 03:18N 50°39' W 126°43'10 8.5
2016-Feb-09 02:04N 50°47' W 126°31'37 2.5
2016-Feb-08 11:32N 50°22' W 125°47'15 7.5
2016-Feb-08 09:33N 50°18' W 125°25'8 8.2
2016-Feb-08 08:33N 50°10' W 125°22'0 0.4
2016-Feb-08 07:33N 50°10' W 125°22'0 0.0
2016-Feb-08 06:33N 50°10' W 125°22'0 0.0
2016-Feb-08 05:33N 50°10' W 125°22'0 0.0
2016-Feb-08 04:33N 50°10' W 125°22'0 0.0
2016-Feb-08 03:33N 50°10' W 125°22'0 0.0
2016-Feb-08 02:33N 50°10' W 125°22'0 0.0
2016-Feb-08 01:33N 50°10' W 125°22'0 0.0
2016-Feb-08 00:33N 50°10' W 125°22'0 0.0
2016-Feb-07 23:33N 50°10' W 125°22'0 0.0
2016-Feb-07 22:33N 50°10' W 125°22'0 0.0
2016-Feb-07 21:33N 50°10' W 125°22'0 0.0
2016-Feb-07 20:33N 50°10' W 125°22'0 0.0
2016-Feb-07 19:33N 50°10' W 125°22'0 0.0
2016-Feb-07 18:33N 50°10' W 125°22'0 0.0
2016-Feb-07 17:33N 50°10' W 125°22'0 0.0
2016-Feb-07 16:33N 50°10' W 125°22'0 0.0
2016-Feb-07 15:33N 50°10' W 125°22'0 0.0
2016-Feb-07 14:33N 50°10' W 125°22'0 0.0
2016-Feb-07 13:33N 50°10' W 125°22'0 0.0
2016-Feb-07 12:33N 50°10' W 125°22'0 0.0
2016-Feb-07 11:33N 50°10' W 125°22'0 0.0
2016-Feb-07 10:33N 50°10' W 125°22'0 0.0
2016-Feb-07 09:33N 50°10' W 125°22'0 0.0
2016-Feb-07 08:33N 50°10' W 125°22'0 0.0
2016-Feb-07 07:33N 50°10' W 125°22'0 0.0
2016-Feb-07 06:33N 50°10' W 125°22'0 0.0
2016-Feb-07 05:33N 50°10' W 125°22'0 0.0
2016-Feb-07 04:33N 50°10' W 125°22'0 0.0
2016-Feb-07 03:33N 50°10' W 125°22'0 0.0
2016-Feb-07 02:33N 50°10' W 125°22'0 0.0
2016-Feb-07 01:33N 50°10' W 125°22'0 0.0
2016-Feb-07 00:33N 50°10' W 125°22'0 0.0
2016-Feb-06 23:33N 50°10' W 125°22'0 0.0
2016-Feb-06 22:33N 50°10' W 125°22'0 0.0
2016-Feb-06 21:33N 50°10' W 125°22'0 0.0
2016-Feb-06 20:33N 50°10' W 125°22'0 0.0
2016-Feb-06 19:33N 50°10' W 125°22'0 0.0
2016-Feb-06 18:31N 50°10' W 125°22'0 0.0
2016-Feb-06 17:33N 50°10' W 125°22'0 0.0
2016-Feb-06 16:33N 50°10' W 125°22'0 0.0
2016-Feb-06 15:33N 50°10' W 125°22'0 0.0
2016-Feb-06 14:33N 50°10' W 125°22'0 0.0
2016-Feb-06 13:33N 50°10' W 125°22'0 0.0
2016-Feb-06 12:33N 50°10' W 125°22'0 0.0
2016-Feb-06 11:33N 50°10' W 125°22'0 0.0
2016-Feb-06 10:33N 50°10' W 125°22'0 0.0
2016-Feb-06 09:33N 50°10' W 125°22'0 0.0
2016-Feb-06 08:33N 50°10' W 125°22'0 0.0
2016-Feb-06 07:33N 50°10' W 125°22'0 0.0
2016-Feb-06 06:33N 50°10' W 125°22'0 0.0
2016-Feb-06 05:33N 50°10' W 125°22'0 0.0
2016-Feb-06 04:33N 50°10' W 125°22'0 0.0
2016-Feb-06 03:33N 50°10' W 125°22'0 0.0
2016-Feb-06 02:33N 50°10' W 125°22'0 0.0
2016-Feb-06 01:33N 50°10' W 125°22'0 0.0
2016-Feb-06 00:33N 50°10' W 125°22'0 0.0
2016-Feb-05 23:33N 50°10' W 125°22'0 0.0
2016-Feb-05 22:33N 50°10' W 125°22'0 0.0
2016-Feb-05 21:33N 50°10' W 125°22'0 0.0
2016-Feb-05 20:33N 50°10' W 125°22'0 0.0
2016-Feb-05 19:33N 50°10' W 125°22'0 0.0
2016-Feb-05 18:33N 50°10' W 125°22'0 0.0
2016-Feb-05 17:33N 50°10' W 125°22'0 0.0
2016-Feb-05 16:33N 50°10' W 125°22'0 0.0
2016-Feb-05 15:33N 50°10' W 125°22'0 0.0
2016-Feb-05 14:33N 50°10' W 125°22'0 0.0
2016-Feb-05 13:33N 50°10' W 125°22'0 0.0
2016-Feb-05 12:33N 50°10' W 125°22'0 0.0
2016-Feb-05 11:33N 50°10' W 125°22'0 0.3
2016-Feb-05 10:33N 50°10' W 125°22'9 9.0
2016-Feb-05 09:33N 50°19' W 125°25'2 0.1
2016-Feb-04 08:11N 50°20' W 125°27'5 7.8
2016-Feb-04 07:33N 50°16' W 125°24'6 6.2
2016-Feb-04 06:33N 50°10' W 125°22'0 0.0
2016-Feb-04 05:33N 50°10' W 125°22'0 0.0
2016-Feb-04 04:33N 50°10' W 125°22'0 0.0
2016-Feb-04 03:33N 50°10' W 125°22'0 0.0
2016-Feb-04 02:33N 50°10' W 125°22'0 0.0
2016-Feb-04 01:33N 50°10' W 125°22'0 0.0
2016-Feb-04 00:33N 50°10' W 125°22'0 0.0
2016-Feb-03 23:33N 50°10' W 125°22'0 0.0
2016-Feb-03 22:33N 50°10' W 125°22'0 0.0
2016-Feb-03 21:33N 50°10' W 125°22'0 0.0
2016-Feb-03 20:33N 50°10' W 125°22'0 0.0
2016-Feb-03 19:33N 50°10' W 125°22'0 0.0
2016-Feb-03 18:33N 50°10' W 125°22'0 0.0
2016-Feb-03 17:33N 50°10' W 125°22'0 0.0
2016-Feb-03 16:33N 50°10' W 125°22'0 0.0
2016-Feb-03 15:33N 50°10' W 125°22'0 0.0
2016-Feb-03 14:33N 50°10' W 125°22'0 0.0
2016-Feb-03 13:33N 50°10' W 125°22'0 0.0
2016-Feb-03 12:33N 50°10' W 125°22'0 0.0
2016-Feb-03 11:33N 50°10' W 125°22'0 0.0
2016-Feb-03 10:33N 50°10' W 125°22'7 6.6
2016-Feb-03 09:33N 50°16' W 125°24'1 0.0
2016-Feb-02 07:33N 50°17' W 125°25'7 7.5
2016-Feb-02 06:33N 50°10' W 125°22'0 0.0
2016-Feb-02 05:33N 50°10' W 125°22'  

Dump ship's entire track history